sensor_id;sensor_type;location;lat;lon;timestamp;pressure;altitude;pressure_sealevel;temperature;humidity
68226;BME280;55045;49.410;11.030;2023-02-18T00:01:02;98795.59;;;9.59;100.00
68226;BME280;55045;49.410;11.030;2023-02-18T00:04:10;98790.13;;;9.68;100.00
68226;BME280;55045;49.410;11.030;2023-02-18T00:07:14;98789.16;;;9.45;100.00
68226;BME280;55045;49.410;11.030;2023-02-18T00:10:18;98797.50;;;9.53;100.00
68226;BME280;55045;49.410;11.030;2023-02-18T00:13:21;98798.47;;;9.51;100.00
68226;BME280;55045;49.410;11.030;2023-02-18T00:16:25;98752.50;;;9.05;100.00
68226;BME280;55045;49.410;11.030;2023-02-18T00:19:29;98809.44;;;9.58;100.00
68226;BME280;55045;49.410;11.030;2023-02-18T00:22:34;98818.72;;;9.65;100.00
68226;BME280;55045;49.410;11.030;2023-02-18T00:25:37;98834.38;;;9.62;100.00
68226;BME280;55045;49.410;11.030;2023-02-18T00:28:40;98845.53;;;9.64;100.00
68226;BME280;55045;49.410;11.030;2023-02-18T00:31:44;98816.13;;;9.65;100.00
68226;BME280;55045;49.410;11.030;2023-02-18T00:34:47;98828.97;;;9.68;100.00
68226;BME280;55045;49.410;11.030;2023-02-18T00:37:52;98819.19;;;9.76;100.00
68226;BME280;55045;49.410;11.030;2023-02-18T00:40:55;98800.28;;;9.74;100.00
68226;BME280;55045;49.410;11.030;2023-02-18T00:43:58;98795.22;;;9.71;100.00
68226;BME280;55045;49.410;11.030;2023-02-18T00:47:02;98789.28;;;9.67;100.00
68226;BME280;55045;49.410;11.030;2023-02-18T00:50:06;98783.66;;;9.79;100.00
68226;BME280;55045;49.410;11.030;2023-02-18T00:53:11;98772.94;;;9.65;100.00
68226;BME280;55045;49.410;11.030;2023-02-18T00:56:15;98791.03;;;9.67;100.00
68226;BME280;55045;49.410;11.030;2023-02-18T00:59:18;98795.22;;;9.44;100.00
68226;BME280;55045;49.410;11.030;2023-02-18T01:02:21;98808.72;;;9.54;100.00
68226;BME280;55045;49.410;11.030;2023-02-18T01:05:24;98815.03;;;9.45;100.00
68226;BME280;55045;49.410;11.030;2023-02-18T01:08:29;98810.16;;;9.36;100.00
68226;BME280;55045;49.410;11.030;2023-02-18T01:11:32;98820.13;;;9.22;100.00
68226;BME280;55045;49.410;11.030;2023-02-18T01:14:36;98817.72;;;9.16;100.00
68226;BME280;55045;49.410;11.030;2023-02-18T01:17:39;98829.69;;;9.20;100.00
68226;BME280;55045;49.410;11.030;2023-02-18T01:20:43;98826.09;;;9.24;100.00
68226;BME280;55045;49.410;11.030;2023-02-18T01:23:48;98841.78;;;9.18;100.00
68226;BME280;55045;49.410;11.030;2023-02-18T01:26:52;98835.81;;;9.16;100.00
68226;BME280;55045;49.410;11.030;2023-02-18T01:29:55;98829.13;;;9.09;100.00
68226;BME280;55045;49.410;11.030;2023-02-18T01:32:59;98832.44;;;9.14;100.00
68226;BME280;55045;49.410;11.030;2023-02-18T01:36:02;98836.06;;;9.08;100.00
68226;BME280;55045;49.410;11.030;2023-02-18T01:39:07;98833.50;;;9.07;100.00
68226;BME280;55045;49.410;11.030;2023-02-18T01:42:17;98824.97;;;9.05;100.00
68226;BME280;55045;49.410;11.030;2023-02-18T01:45:47;98833.50;;;9.07;100.00
68226;BME280;55045;49.410;11.030;2023-02-18T01:48:54;98826.53;;;9.10;100.00
68226;BME280;55045;49.410;11.030;2023-02-18T01:52:02;98799.38;;;8.95;100.00
68226;BME280;55045;49.410;11.030;2023-02-18T01:55:07;98820.56;;;9.07;100.00
68226;BME280;55045;49.410;11.030;2023-02-18T01:58:11;98817.06;;;9.09;100.00
68226;BME280;55045;49.410;11.030;2023-02-18T02:01:15;98817.06;;;9.09;100.00
68226;BME280;55045;49.410;11.030;2023-02-18T02:04:19;98816.97;;;9.12;100.00
68226;BME280;55045;49.410;11.030;2023-02-18T02:07:25;98807.31;;;9.17;100.00
68226;BME280;55045;49.410;11.030;2023-02-18T02:10:40;98791.81;;;9.16;100.00
68226;BME280;55045;49.410;11.030;2023-02-18T02:14:02;98786.75;;;9.13;100.00
68226;BME280;55045;49.410;11.030;2023-02-18T02:17:16;98763.59;;;9.08;100.00
68226;BME280;55045;49.410;11.030;2023-02-18T02:20:58;98791.47;;;9.27;100.00
68226;BME280;55045;49.410;11.030;2023-02-18T02:28:02;98777.81;;;9.23;100.00
68226;BME280;55045;49.410;11.030;2023-02-18T02:31:46;98778.47;;;9.28;100.00
68226;BME280;55045;49.410;11.030;2023-02-18T02:34:56;98774.25;;;9.26;100.00
68226;BME280;55045;49.410;11.030;2023-02-18T02:38:04;98759.56;;;9.26;100.00
68226;BME280;55045;49.410;11.030;2023-02-18T02:41:15;98757.78;;;9.28;100.00
68226;BME280;55045;49.410;11.030;2023-02-18T02:44:26;98749.97;;;9.30;100.00
68226;BME280;55045;49.410;11.030;2023-02-18T02:47:39;98743.94;;;9.29;100.00
68226;BME280;55045;49.410;11.030;2023-02-18T02:50:52;98738.56;;;9.35;100.00
68226;BME280;55045;49.410;11.030;2023-02-18T02:54:09;98746.44;;;9.32;100.00
68226;BME280;55045;49.410;11.030;2023-02-18T02:57:42;98738.38;;;9.41;100.00
68226;BME280;55045;49.410;11.030;2023-02-18T03:01:03;98737.56;;;9.39;100.00
68226;BME280;55045;49.410;11.030;2023-02-18T03:11:12;98735.19;;;9.33;100.00
68226;BME280;55045;49.410;11.030;2023-02-18T03:14:22;98739.16;;;9.43;100.00
68226;BME280;55045;49.410;11.030;2023-02-18T03:17:33;98734.19;;;9.37;100.00
68226;BME280;55045;49.410;11.030;2023-02-18T03:20:42;98724.72;;;9.36;100.00
68226;BME280;55045;49.410;11.030;2023-02-18T03:23:53;98735.97;;;9.35;100.00
68226;BME280;55045;49.410;11.030;2023-02-18T03:27:05;98735.13;;;9.35;100.00
68226;BME280;55045;49.410;11.030;2023-02-18T03:30:14;98727.13;;;9.42;100.00
68226;BME280;55045;49.410;11.030;2023-02-18T03:33:22;98735.78;;;9.41;100.00
68226;BME280;55045;49.410;11.030;2023-02-18T03:36:28;98743.44;;;9.44;100.00
68226;BME280;55045;49.410;11.030;2023-02-18T03:39:35;98734.72;;;9.47;100.00
68226;BME280;55045;49.410;11.030;2023-02-18T03:42:39;98739.16;;;9.43;100.00
68226;BME280;55045;49.410;11.030;2023-02-18T03:45:42;98735.56;;;9.47;100.00
68226;BME280;55045;49.410;11.030;2023-02-18T03:48:45;98735.56;;;9.47;100.00
68226;BME280;55045;49.410;11.030;2023-02-18T03:51:48;98740.06;;;9.42;100.00
68226;BME280;55045;49.410;11.030;2023-02-18T03:54:54;98738.41;;;9.40;100.00
68226;BME280;55045;49.410;11.030;2023-02-18T03:57:57;98736.47;;;9.46;100.00
68226;BME280;55045;49.410;11.030;2023-02-18T04:01:00;98741.28;;;9.32;100.00
68226;BME280;55045;49.410;11.030;2023-02-18T04:04:04;98750.06;;;9.27;100.00
68226;BME280;55045;49.410;11.030;2023-02-18T04:07:07;98753.63;;;9.24;100.00
68226;BME280;55045;49.410;11.030;2023-02-18T04:10:12;98759.69;;;9.23;100.00
68226;BME280;55045;49.410;11.030;2023-02-18T04:13:16;98754.56;;;9.21;100.00
68226;BME280;55045;49.410;11.030;2023-02-18T04:16:19;98756.34;;;9.19;100.00
68226;BME280;55045;49.410;11.030;2023-02-18T04:19:22;98777.19;;;9.15;100.00
68226;BME280;55045;49.410;11.030;2023-02-18T04:22:25;98780.78;;;9.11;100.00
68226;BME280;55045;49.410;11.030;2023-02-18T04:25:30;98766.19;;;9.08;100.00
68226;BME280;55045;49.410;11.030;2023-02-18T04:28:34;98774.50;;;9.18;100.00
68226;BME280;55045;49.410;11.030;2023-02-18T04:34:33;98757.28;;;9.17;100.00
68226;BME280;55045;49.410;11.030;2023-02-18T04:37:37;98756.59;;;9.38;100.00
68226;BME280;55045;49.410;11.030;2023-02-18T04:40:40;98748.72;;;9.41;100.00
68226;BME280;55045;49.410;11.030;2023-02-18T04:43:43;98742.75;;;9.39;100.00
68226;BME280;55045;49.410;11.030;2023-02-18T04:46:46;98740.00;;;9.44;100.00
68226;BME280;55045;49.410;11.030;2023-02-18T04:49:51;98737.56;;;9.39;100.00
68226;BME280;55045;49.410;11.030;2023-02-18T04:52:55;98742.84;;;9.36;100.00
68226;BME280;55045;49.410;11.030;2023-02-18T04:55:58;98735.56;;;9.47;100.00
68226;BME280;55045;49.410;11.030;2023-02-18T04:59:02;98737.25;;;9.48;100.00
68226;BME280;55045;49.410;11.030;2023-02-18T05:02:05;98732.19;;;9.45;100.00
68226;BME280;55045;49.410;11.030;2023-02-18T05:05:10;98733.72;;;9.51;100.00
68226;BME280;55045;49.410;11.030;2023-02-18T05:08:13;98732.72;;;9.55;100.00
68226;BME280;55045;49.410;11.030;2023-02-18T05:11:17;98731.28;;;9.46;100.00
68226;BME280;55045;49.410;11.030;2023-02-18T05:14:20;98732.50;;;9.36;100.00
68226;BME280;55045;49.410;11.030;2023-02-18T05:17:23;98734.84;;;9.44;100.00
68226;BME280;55045;49.410;11.030;2023-02-18T05:20:28;98722.53;;;9.50;100.00
68226;BME280;55045;49.410;11.030;2023-02-18T05:23:32;98734.72;;;9.47;100.00
68226;BME280;55045;49.410;11.030;2023-02-18T05:26:35;98726.16;;;9.45;100.00
68226;BME280;55045;49.410;11.030;2023-02-18T05:29:38;98724.59;;;9.41;100.00
68226;BME280;55045;49.410;11.030;2023-02-18T05:32:41;98715.16;;;9.38;100.00
68226;BME280;55045;49.410;11.030;2023-02-18T05:35:47;98718.66;;;9.37;100.00
68226;BME280;55045;49.410;11.030;2023-02-18T05:38:50;98724.59;;;9.41;100.00
68226;BME280;55045;49.410;11.030;2023-02-18T05:41:53;98720.09;;;9.46;100.00
68226;BME280;55045;49.410;11.030;2023-02-18T05:44:57;98721.94;;;9.42;100.00
68226;BME280;55045;49.410;11.030;2023-02-18T05:48:00;98717.75;;;9.38;100.00
68226;BME280;55045;49.410;11.030;2023-02-18T05:51:05;98713.16;;;9.46;100.00
68226;BME280;55045;49.410;11.030;2023-02-18T05:54:08;98717.38;;;9.49;100.00
68226;BME280;55045;49.410;11.030;2023-02-18T05:57:12;98716.53;;;9.48;100.00
68226;BME280;55045;49.410;11.030;2023-02-18T06:00:16;98707.88;;;9.49;100.00
68226;BME280;55045;49.410;11.030;2023-02-18T06:03:20;98723.63;;;9.43;100.00
68226;BME280;55045;49.410;11.030;2023-02-18T06:06:24;98708.88;;;9.45;100.00
68226;BME280;55045;49.410;11.030;2023-02-18T06:09:28;98692.34;;;9.24;100.00
68226;BME280;55045;49.410;11.030;2023-02-18T06:12:31;98727.19;;;9.39;100.00
68226;BME280;55045;49.410;11.030;2023-02-18T06:15:34;98711.66;;;9.39;100.00
68226;BME280;55045;49.410;11.030;2023-02-18T06:18:37;98722.03;;;9.39;100.00
68226;BME280;55045;49.410;11.030;2023-02-18T06:21:42;98722.72;;;9.44;100.00
68226;BME280;55045;49.410;11.030;2023-02-18T06:24:45;98707.78;;;9.52;100.00
68226;BME280;55045;49.410;11.030;2023-02-18T06:27:48;98706.56;;;9.63;100.00
68226;BME280;55045;49.410;11.030;2023-02-18T06:30:52;98677.22;;;9.37;100.00
68226;BME280;55045;49.410;11.030;2023-02-18T06:33:55;98695.19;;;9.67;100.00
68226;BME280;55045;49.410;11.030;2023-02-18T06:37:00;98690.00;;;9.67;100.00
68226;BME280;55045;49.410;11.030;2023-02-18T06:40:04;98686.63;;;9.65;100.00
68226;BME280;55045;49.410;11.030;2023-02-18T06:43:08;98671.25;;;9.60;100.00
68226;BME280;55045;49.410;11.030;2023-02-18T06:46:11;98679.78;;;9.64;100.00
68226;BME280;55045;49.410;11.030;2023-02-18T06:49:14;98685.06;;;9.61;100.00
68226;BME280;55045;49.410;11.030;2023-02-18T06:52:19;98689.44;;;9.59;100.00
68226;BME280;55045;49.410;11.030;2023-02-18T06:55:22;98685.91;;;9.61;100.00
68226;BME280;55045;49.410;11.030;2023-02-18T06:58:25;98665.91;;;9.65;100.00
68226;BME280;55045;49.410;11.030;2023-02-18T07:01:28;98666.03;;;9.62;100.00
68226;BME280;55045;49.410;11.030;2023-02-18T07:04:32;98674.69;;;9.61;100.00
68226;BME280;55045;49.410;11.030;2023-02-18T07:07:36;98673.00;;;9.60;100.00
68226;BME280;55045;49.410;11.030;2023-02-18T07:10:40;98661.25;;;9.49;100.00
68226;BME280;55045;49.410;11.030;2023-02-18T07:13:43;98728.31;;;9.57;100.00
68226;BME280;55045;49.410;11.030;2023-02-18T07:16:46;98720.41;;;9.62;100.00
68226;BME280;55045;49.410;11.030;2023-02-18T07:19:50;98699.47;;;9.68;100.00
68226;BME280;55045;49.410;11.030;2023-02-18T07:22:54;98665.59;;;9.74;100.00
68226;BME280;55045;49.410;11.030;2023-02-18T07:26:05;98647.47;;;9.74;100.00
68226;BME280;55045;49.410;11.030;2023-02-18T07:29:12;98642.16;;;9.77;100.00
68226;BME280;55045;49.410;11.030;2023-02-18T07:32:17;98627.72;;;9.70;100.00
68226;BME280;55045;49.410;11.030;2023-02-18T07:35:20;98653.09;;;9.85;100.00
68226;BME280;55045;49.410;11.030;2023-02-18T07:38:26;98656.47;;;9.87;100.00
68226;BME280;55045;49.410;11.030;2023-02-18T07:41:29;98655.88;;;9.79;100.00
68226;BME280;55045;49.410;11.030;2023-02-18T07:44:33;98656.69;;;9.81;100.00
68226;BME280;55045;49.410;11.030;2023-02-18T07:47:36;98647.13;;;9.83;100.00
68226;BME280;55045;49.410;11.030;2023-02-18T07:50:40;98636.84;;;9.80;100.00
68226;BME280;55045;49.410;11.030;2023-02-18T07:53:45;98646.09;;;9.87;100.00
68226;BME280;55045;49.410;11.030;2023-02-18T07:56:49;98646.81;;;9.91;100.00
68226;BME280;55045;49.410;11.030;2023-02-18T07:59:52;98644.06;;;9.95;100.00
68226;BME280;55045;49.410;11.030;2023-02-18T08:02:55;98634.16;;;10.06;100.00
68226;BME280;55045;49.410;11.030;2023-02-18T08:06:00;98634.22;;;10.05;100.00
68226;BME280;55045;49.410;11.030;2023-02-18T08:09:05;98628.84;;;10.09;100.00
68226;BME280;55045;49.410;11.030;2023-02-18T08:12:08;98622.53;;;10.17;100.00
68226;BME280;55045;49.410;11.030;2023-02-18T08:15:12;98623.84;;;10.05;100.00
68226;BME280;55045;49.410;11.030;2023-02-18T08:18:17;98620.16;;;10.10;100.00
68226;BME280;55045;49.410;11.030;2023-02-18T08:21:22;98618.47;;;10.09;100.00
68226;BME280;55045;49.410;11.030;2023-02-18T08:24:27;98607.44;;;10.04;100.00
68226;BME280;55045;49.410;11.030;2023-02-18T08:27:30;98615.78;;;10.13;100.00
68226;BME280;55045;49.410;11.030;2023-02-18T08:30:34;98569.59;;;10.00;100.00
68226;BME280;55045;49.410;11.030;2023-02-18T08:33:37;98604.97;;;10.25;100.00
68226;BME280;55045;49.410;11.030;2023-02-18T08:36:40;98592.84;;;10.25;100.00
68226;BME280;55045;49.410;11.030;2023-02-18T08:39:45;98599.66;;;10.28;100.00
68226;BME280;55045;49.410;11.030;2023-02-18T08:42:48;98596.75;;;10.35;100.00
68226;BME280;55045;49.410;11.030;2023-02-18T08:45:51;98594.25;;;10.34;100.00
68226;BME280;55045;49.410;11.030;2023-02-18T08:48:54;98595.44;;;10.47;100.00
68226;BME280;55045;49.410;11.030;2023-02-18T08:51:57;98586.13;;;10.42;100.00
68226;BME280;55045;49.410;11.030;2023-02-18T08:55:02;98590.47;;;10.41;100.00
68226;BME280;55045;49.410;11.030;2023-02-18T08:58:05;98585.75;;;10.51;100.00
68226;BME280;55045;49.410;11.030;2023-02-18T09:01:11;98576.31;;;10.50;100.00
68226;BME280;55045;49.410;11.030;2023-02-18T09:04:14;98565.63;;;10.57;100.00
68226;BME280;55045;49.410;11.030;2023-02-18T09:07:18;98568.84;;;10.62;100.00
68226;BME280;55045;49.410;11.030;2023-02-18T09:10:23;98567.13;;;10.63;100.00
68226;BME280;55045;49.410;11.030;2023-02-18T09:13:26;98551.50;;;10.64;100.00
68226;BME280;55045;49.410;11.030;2023-02-18T09:16:29;98539.03;;;10.73;100.00
68226;BME280;55045;49.410;11.030;2023-02-18T09:19:33;98531.38;;;10.70;100.00
68226;BME280;55045;49.410;11.030;2023-02-18T09:22:36;98520.25;;;10.67;100.00
68226;BME280;55045;49.410;11.030;2023-02-18T09:25:40;98516.53;;;10.53;100.00
68226;BME280;55045;49.410;11.030;2023-02-18T09:28:44;98512.84;;;10.58;100.00
68226;BME280;55045;49.410;11.030;2023-02-18T09:31:47;98513.38;;;10.66;100.00
68226;BME280;55045;49.410;11.030;2023-02-18T09:34:50;98510.09;;;10.61;100.00
68226;BME280;55045;49.410;11.030;2023-02-18T09:37:53;98520.09;;;10.71;100.00
68226;BME280;55045;49.410;11.030;2023-02-18T09:40:59;98527.09;;;10.68;100.00
68226;BME280;55045;49.410;11.030;2023-02-18T09:44:04;98523.34;;;10.76;100.00
68226;BME280;55045;49.410;11.030;2023-02-18T09:47:13;98513.69;;;10.59;100.00
68226;BME280;55045;49.410;11.030;2023-02-18T09:50:20;98477.66;;;10.53;100.00
68226;BME280;55045;49.410;11.030;2023-02-18T09:53:23;98531.78;;;10.81;100.00
68226;BME280;55045;49.410;11.030;2023-02-18T09:56:31;98528.84;;;10.88;100.00
68226;BME280;55045;49.410;11.030;2023-02-18T09:59:36;98524.97;;;10.99;100.00
68226;BME280;55045;49.410;11.030;2023-02-18T10:02:40;98527.47;;;11.00;100.00
68226;BME280;55045;49.410;11.030;2023-02-18T10:05:55;98520.59;;;10.99;100.00
68226;BME280;55045;49.410;11.030;2023-02-18T10:09:02;98517.84;;;11.04;100.00
68226;BME280;55045;49.410;11.030;2023-02-18T10:12:12;98512.75;;;11.01;100.00
68226;BME280;55045;49.410;11.030;2023-02-18T10:15:21;98527.31;;;11.05;100.00
68226;BME280;55045;49.410;11.030;2023-02-18T10:18:27;98527.94;;;11.10;100.00
68226;BME280;55045;49.410;11.030;2023-02-18T10:21:32;98523.31;;;11.16;100.00
68226;BME280;55045;49.410;11.030;2023-02-18T10:24:39;98515.38;;;11.19;100.00
68226;BME280;55045;49.410;11.030;2023-02-18T10:27:45;98521.22;;;11.24;100.00
68226;BME280;55045;49.410;11.030;2023-02-18T10:34:39;98505.16;;;11.16;100.00
68226;BME280;55045;49.410;11.030;2023-02-18T10:37:53;98515.53;;;11.16;100.00
68226;BME280;55045;49.410;11.030;2023-02-18T10:41:02;98463.59;;;11.16;100.00
68226;BME280;55045;49.410;11.030;2023-02-18T10:44:19;98386.88;;;10.72;100.00
68226;BME280;55045;49.410;11.030;2023-02-18T10:47:35;98486.56;;;11.44;100.00
68226;BME280;55045;49.410;11.030;2023-02-18T10:50:43;98489.38;;;11.40;100.00
68226;BME280;55045;49.410;11.030;2023-02-18T10:53:48;98495.41;;;11.59;100.00
68226;BME280;55045;49.410;11.030;2023-02-18T10:56:57;98480.25;;;11.50;100.00
68226;BME280;55045;49.410;11.030;2023-02-18T11:00:05;98458.84;;;11.45;100.00
68226;BME280;55045;49.410;11.030;2023-02-18T11:03:19;98437.56;;;11.37;100.00
68226;BME280;55045;49.410;11.030;2023-02-18T11:06:29;98474.41;;;11.64;100.00
68226;BME280;55045;49.410;11.030;2023-02-18T11:09:39;98438.75;;;11.48;100.00
68226;BME280;55045;49.410;11.030;2023-02-18T11:12:49;98468.31;;;11.65;100.00
68226;BME280;55045;49.410;11.030;2023-02-18T11:15:57;98462.13;;;11.67;100.00
68226;BME280;55045;49.410;11.030;2023-02-18T11:19:01;98456.78;;;11.70;100.00
68226;BME280;55045;49.410;11.030;2023-02-18T11:22:12;98430.63;;;11.56;100.00
68226;BME280;55045;49.410;11.030;2023-02-18T11:25:19;98451.50;;;11.72;100.00
68226;BME280;55045;49.410;11.030;2023-02-18T11:28:29;98436.00;;;11.70;100.00
68226;BME280;55045;49.410;11.030;2023-02-18T11:31:39;98406.00;;;11.63;100.00
68226;BME280;55045;49.410;11.030;2023-02-18T11:34:44;98385.22;;;11.63;100.00
68226;BME280;55045;49.410;11.030;2023-02-18T11:37:49;98423.19;;;11.85;100.00
68226;BME280;55045;49.410;11.030;2023-02-18T11:40:54;98421.91;;;11.93;100.00
68226;BME280;55045;49.410;11.030;2023-02-18T11:43:58;98400.16;;;11.96;100.00
68226;BME280;55045;49.410;11.030;2023-02-18T11:47:04;98407.72;;;12.00;100.00
68226;BME280;55045;49.410;11.030;2023-02-18T11:50:17;98403.81;;;12.09;100.00
68226;BME280;55045;49.410;11.030;2023-02-18T11:53:28;98388.59;;;12.01;100.00
68226;BME280;55045;49.410;11.030;2023-02-18T11:56:34;98399.22;;;12.14;100.00
68226;BME280;55045;49.410;11.030;2023-02-18T11:59:39;98377.09;;;12.05;100.00
68226;BME280;55045;49.410;11.030;2023-02-18T12:02:43;98370.63;;;11.97;100.00
68226;BME280;55045;49.410;11.030;2023-02-18T12:05:47;98393.41;;;12.09;100.00
68226;BME280;55045;49.410;11.030;2023-02-18T12:08:54;98280.22;;;11.33;100.00
68226;BME280;55045;49.410;11.030;2023-02-18T12:12:01;98397.00;;;11.89;100.00
68226;BME280;55045;49.410;11.030;2023-02-18T12:15:11;98391.03;;;11.87;100.00
68226;BME280;55045;49.410;11.030;2023-02-18T12:18:32;98380.34;;;11.74;100.00
68226;BME280;55045;49.410;11.030;2023-02-18T12:21:49;98388.28;;;11.90;100.00
68226;BME280;55045;49.410;11.030;2023-02-18T12:25:12;98393.19;;;11.96;100.00
68226;BME280;55045;49.410;11.030;2023-02-18T12:28:30;98385.44;;;11.95;100.00
68226;BME280;55045;49.410;11.030;2023-02-18T12:31:58;98384.91;;;12.05;100.00
68226;BME280;55045;49.410;11.030;2023-02-18T12:35:26;98361.00;;;11.99;100.00
68226;BME280;55045;49.410;11.030;2023-02-18T12:38:43;98387.88;;;12.15;100.00
68226;BME280;55045;49.410;11.030;2023-02-18T12:42:23;98375.34;;;12.23;100.00
68226;BME280;55045;49.410;11.030;2023-02-18T12:45:44;98365.03;;;12.22;100.00
68226;BME280;55045;49.410;11.030;2023-02-18T12:49:05;98353.41;;;12.11;100.00
68226;BME280;55045;49.410;11.030;2023-02-18T12:52:23;98369.19;;;12.08;100.00
68226;BME280;55045;49.410;11.030;2023-02-18T12:55:49;98369.69;;;12.15;100.00
68226;BME280;55045;49.410;11.030;2023-02-18T12:58:58;98365.50;;;12.13;100.00
68226;BME280;55045;49.410;11.030;2023-02-18T13:02:17;98372.69;;;12.07;100.00
68226;BME280;55045;49.410;11.030;2023-02-18T13:05:30;98371.69;;;12.10;100.00
68226;BME280;55045;49.410;11.030;2023-02-18T13:08:42;98364.97;;;12.06;100.00
68226;BME280;55045;49.410;11.030;2023-02-18T13:11:52;98352.44;;;11.97;100.00
68226;BME280;55045;49.410;11.030;2023-02-18T13:15:04;98349.69;;;12.00;100.00
68226;BME280;55045;49.410;11.030;2023-02-18T13:18:14;98345.25;;;12.02;100.00
68226;BME280;55045;49.410;11.030;2023-02-18T13:21:19;98351.66;;;11.95;100.00
68226;BME280;55045;49.410;11.030;2023-02-18T13:24:27;98343.25;;;11.90;100.00
68226;BME280;55045;49.410;11.030;2023-02-18T13:27:39;98341.13;;;11.80;100.00
68226;BME280;55045;49.410;11.030;2023-02-18T13:30:51;98328.34;;;11.76;100.00
68226;BME280;55045;49.410;11.030;2023-02-18T13:34:06;98337.09;;;11.73;100.00
68226;BME280;55045;49.410;11.030;2023-02-18T13:37:19;98338.78;;;11.74;100.00
68226;BME280;55045;49.410;11.030;2023-02-18T13:40:26;98328.38;;;11.57;100.00
68226;BME280;55045;49.410;11.030;2023-02-18T13:43:32;98340.47;;;11.75;100.00
68226;BME280;55045;49.410;11.030;2023-02-18T13:46:48;98323.19;;;11.74;100.00
68226;BME280;55045;49.410;11.030;2023-02-18T13:49:52;98318.69;;;11.78;100.00
68226;BME280;55045;49.410;11.030;2023-02-18T13:53:23;98308.91;;;11.66;100.00
68226;BME280;55045;49.410;11.030;2023-02-18T13:56:28;98330.13;;;11.74;100.00
68226;BME280;55045;49.410;11.030;2023-02-18T13:59:36;98344.22;;;11.70;100.00
68226;BME280;55045;49.410;11.030;2023-02-18T14:02:55;98334.75;;;11.69;100.00
68226;BME280;55045;49.410;11.030;2023-02-18T14:05:58;98329.22;;;11.58;100.00
68226;BME280;55045;49.410;11.030;2023-02-18T14:09:33;98338.91;;;11.54;100.00
68226;BME280;55045;49.410;11.030;2023-02-18T14:12:38;98326.25;;;11.48;100.00
68226;BME280;55045;49.410;11.030;2023-02-18T14:15:53;98327.84;;;11.50;100.00
68226;BME280;55045;49.410;11.030;2023-02-18T14:19:00;98338.53;;;11.44;100.00
68226;BME280;55045;49.410;11.030;2023-02-18T14:22:26;98337.06;;;11.39;100.00
68226;BME280;55045;49.410;11.030;2023-02-18T14:25:35;98248.09;;;10.99;100.00
68226;BME280;55045;49.410;11.030;2023-02-18T14:28:43;98329.19;;;11.40;100.00
68226;BME280;55045;49.410;11.030;2023-02-18T14:31:53;98327.44;;;11.41;100.00
68226;BME280;55045;49.410;11.030;2023-02-18T14:35:22;98318.56;;;11.28;100.00
68226;BME280;55045;49.410;11.030;2023-02-18T14:38:35;98336.50;;;11.32;100.00
68226;BME280;55045;49.410;11.030;2023-02-18T14:41:48;98331.03;;;11.38;100.00
68226;BME280;55045;49.410;11.030;2023-02-18T14:45:16;98330.34;;;11.35;100.00
68226;BME280;55045;49.410;11.030;2023-02-18T14:48:41;98323.31;;;11.37;100.00
68226;BME280;55045;49.410;11.030;2023-02-18T14:51:47;98334.69;;;11.34;100.00
68226;BME280;55045;49.410;11.030;2023-02-18T14:54:50;98341.09;;;11.27;100.00
68226;BME280;55045;49.410;11.030;2023-02-18T14:57:55;98331.69;;;11.24;100.00
68226;BME280;55045;49.410;11.030;2023-02-18T15:01:05;98343.47;;;11.32;100.00
68226;BME280;55045;49.410;11.030;2023-02-18T15:04:14;98356.34;;;10.97;100.00
68226;BME280;55045;49.410;11.030;2023-02-18T15:07:20;98353.41;;;10.86;100.00
68226;BME280;55045;49.410;11.030;2023-02-18T15:10:29;98427.41;;;10.35;100.00
68226;BME280;55045;49.410;11.030;2023-02-18T15:13:40;98448.84;;;10.59;100.00
68226;BME280;55045;49.410;11.030;2023-02-18T15:16:45;98459.75;;;10.47;100.00
68226;BME280;55045;49.410;11.030;2023-02-18T15:19:53;98451.50;;;10.57;100.00
68226;BME280;55045;49.410;11.030;2023-02-18T15:22:58;98383.94;;;10.60;100.00
68226;BME280;55045;49.410;11.030;2023-02-18T15:26:02;98386.25;;;10.66;100.00
68226;BME280;55045;49.410;11.030;2023-02-18T15:29:14;98385.13;;;10.53;100.00
68226;BME280;55045;49.410;11.030;2023-02-18T15:32:20;98380.22;;;10.27;100.00
68226;BME280;55045;49.410;11.030;2023-02-18T15:35:27;98410.34;;;9.87;100.00
68226;BME280;55045;49.410;11.030;2023-02-18T15:38:33;98482.16;;;9.84;100.00
68226;BME280;55045;49.410;11.030;2023-02-18T15:41:39;98454.66;;;9.81;100.00
68226;BME280;55045;49.410;11.030;2023-02-18T15:44:45;98489.75;;;9.88;100.00
68226;BME280;55045;49.410;11.030;2023-02-18T15:47:51;98442.84;;;9.74;100.00
68226;BME280;55045;49.410;11.030;2023-02-18T15:50:56;98428.69;;;9.61;100.00
68226;BME280;55045;49.410;11.030;2023-02-18T15:54:19;98433.88;;;9.61;100.00
68226;BME280;55045;49.410;11.030;2023-02-18T15:57:27;98440.38;;;9.71;100.00
68226;BME280;55045;49.410;11.030;2023-02-18T16:00:35;98433.44;;;9.71;100.00
68226;BME280;55045;49.410;11.030;2023-02-18T16:03:44;98414.97;;;9.79;100.00
68226;BME280;55045;49.410;11.030;2023-02-18T16:06:49;98423.94;;;9.72;100.00
68226;BME280;55045;49.410;11.030;2023-02-18T16:10:14;98417.28;;;9.87;100.00
68226;BME280;55045;49.410;11.030;2023-02-18T16:13:18;98414.75;;;9.85;100.00
68226;BME280;55045;49.410;11.030;2023-02-18T16:16:23;98419.94;;;9.85;100.00
68226;BME280;55045;49.410;11.030;2023-02-18T16:19:30;98414.13;;;9.78;100.00
68226;BME280;55045;49.410;11.030;2023-02-18T16:22:36;98488.97;;;9.64;100.00
68226;BME280;55045;49.410;11.030;2023-02-18T16:25:48;98498.94;;;9.51;100.00
68226;BME280;55045;49.410;11.030;2023-02-18T16:28:51;98501.81;;;9.44;100.00
68226;BME280;55045;49.410;11.030;2023-02-18T16:34:35;98473.31;;;9.22;100.00